Weather at Klatovy Airport

Public forecast

Using degrees Celsius for public forecast. Weather courtesy of forecast.io.

Closest aviation weather report (METAR) to Klatovy Airport

Closest report is Plzeň-Líně Airport, 15.5 nm (28.8 km) N. Retrieved 2021/08/04 05:00 UTC (39 minutes ago):

LKLN 040500Z AUTO 20005KT 9999 FEW059 BKN100 OVC120 14/14 Q1015

Closest aviation forecast (TAF) to Klatovy Airport

Closest forecast is Karlovy Vary International Airport, 49.7 nm (92.0 km) NNW. Retrieved 2021-08-04 00:33 UTC (5 hours ago):

TAF LKKV 032300Z 0400/0506 24006KT 9999 BKN027 TEMPO 0400/0410 5000 RA BR OVC010 TEMPO 0411/0420 7000 SHRA SCT027TCU